Time;durP1;ratioP1;P1;durP2;ratioP2;P2;SDS_P1;SDS_P2;PMS_P1;PMS_P2;Temp;Humidity;BMP_temperature;BMP_pressure;BME280_temperature;BME280_humidity;BME280_pressure;Samples;Min_cycle;Max_cycle;Signal;HPM_P1;HPM_P2
2021/08/03 00:02:26;;;;;;;8.80;4.47;;;15.60;99.90;;;;;;5013577;28;20080;-70
2021/08/03 00:04:58;;;;;;;8.68;4.68;;;15.60;99.90;;;;;;5013915;28;20033;-70
2021/08/03 00:07:28;;;;;;;7.38;4.30;;;15.60;99.90;;;;;;5012351;28;20423;-70
2021/08/03 00:09:56;;;;;;;6.87;4.10;;;15.50;99.90;;;;;;5013640;28;20033;-71
2021/08/03 00:12:23;;;;;;;13.05;4.80;;;15.50;99.90;;;;;;5013441;28;20026;-70
2021/08/03 00:14:52;;;;;;;5.53;3.60;;;15.50;99.90;;;;;;5013408;28;20036;-71
2021/08/03 00:17:25;;;;;;;10.65;4.63;;;15.60;99.90;;;;;;5013600;28;20459;-70
2021/08/03 00:19:53;;;;;;;5.70;3.30;;;15.70;99.90;;;;;;5012361;28;20494;-71
2021/08/03 00:22:22;;;;;;;7.57;3.03;;;15.70;99.90;;;;;;5013325;28;20045;-70
2021/08/03 00:24:50;;;;;;;5.57;3.30;;;15.80;99.90;;;;;;5013452;28;20034;-70
2021/08/03 00:27:16;;;;;;;7.35;2.88;;;15.80;99.90;;;;;;5013626;28;20586;-71
2021/08/03 00:29:42;;;;;;;8.35;3.55;;;15.80;99.90;;;;;;5012154;28;20631;-70
2021/08/03 00:32:08;;;;;;;5.32;2.92;;;15.80;99.90;;;;;;5012247;28;20034;-71
2021/08/03 00:34:36;;;;;;;6.30;3.00;;;15.80;99.90;;;;;;5012924;28;20368;-71
2021/08/03 00:37:06;;;;;;;4.20;2.90;;;15.90;99.90;;;;;;5013106;28;20049;-71
2021/08/03 00:39:33;;;;;;;6.05;2.85;;;15.80;99.90;;;;;;5011759;28;20040;-70
2021/08/03 00:42:04;;;;;;;5.00;2.78;;;15.80;99.90;;;;;;4995519;28;20045;-71
2021/08/03 00:44:50;;;;;;;5.90;2.92;;;15.80;99.90;;;;;;5012697;28;20034;-71
2021/08/03 00:47:19;;;;;;;7.05;2.75;;;15.80;99.90;;;;;;5012766;28;20050;-71
2021/08/03 00:49:46;;;;;;;3.75;2.40;;;15.80;99.90;;;;;;5013165;28;20057;-70
2021/08/03 00:52:15;;;;;;;5.03;2.38;;;15.80;99.90;;;;;;5012790;28;20025;-70
2021/08/03 00:54:41;;;;;;;6.85;2.90;;;15.80;99.90;;;;;;5011403;28;20042;-70
2021/08/03 00:57:10;;;;;;;3.70;2.58;;;15.70;99.90;;;;;;5012765;28;20152;-70
2021/08/03 00:59:37;;;;;;;6.82;3.13;;;15.60;99.90;;;;;;5012807;28;20029;-70
2021/08/03 01:02:05;;;;;;;4.75;3.15;;;15.60;99.90;;;;;;5012657;28;20393;-70
2021/08/03 01:04:31;;;;;;;7.95;3.08;;;15.50;99.90;;;;;;5011546;28;20038;-70
2021/08/03 01:07:36;;;;;;;4.10;2.70;;;15.50;99.90;;;;;;5012604;28;20072;-70
2021/08/03 01:10:25;;;;;;;3.47;2.42;;;15.50;99.90;;;;;;5012507;28;20041;-70
2021/08/03 01:13:13;;;;;;;4.22;2.50;;;15.50;99.90;;;;;;5012476;28;20079;-70
2021/08/03 01:16:29;;;;;;;4.68;3.15;;;15.40;99.90;;;;;;5011033;28;20410;-70
2021/08/03 01:19:10;;;;;;;5.10;2.78;;;15.40;99.90;;;;;;5008434;28;20053;-70
2021/08/03 01:22:02;;;;;;;5.20;2.30;;;15.40;99.90;;;;;;5012595;28;20032;-70
2021/08/03 01:24:36;;;;;;;6.70;2.75;;;15.40;99.90;;;;;;5011045;28;20040;-70
2021/08/03 01:27:54;;;;;;;5.95;2.65;;;15.40;99.90;;;;;;5012521;28;20049;-70
2021/08/03 01:30:20;;;;;;;7.00;4.38;;;15.40;99.90;;;;;;5012167;28;20415;-70
2021/08/03 01:32:48;;;;;;;5.32;3.00;;;15.30;99.90;;;;;;5010989;28;20468;-70
2021/08/03 01:35:15;;;;;;;6.40;2.80;;;15.30;99.90;;;;;;5011345;28;20211;-70
2021/08/03 01:37:41;;;;;;;5.65;3.22;;;15.40;99.90;;;;;;5011123;28;20105;-71
2021/08/03 01:40:13;;;;;;;6.47;3.10;;;15.40;99.90;;;;;;5011159;28;20116;-71
2021/08/03 01:42:42;;;;;;;5.63;3.10;;;15.40;99.90;;;;;;5010966;28;20033;-71
2021/08/03 01:45:13;;;;;;;6.78;3.25;;;15.40;99.90;;;;;;5010678;28;20034;-71
2021/08/03 01:47:39;;;;;;;3.90;2.75;;;15.40;99.90;;;;;;5012239;28;20034;-71
2021/08/03 01:50:08;;;;;;;5.07;2.83;;;15.40;99.90;;;;;;5016261;28;20087;-71
2021/08/03 01:52:34;;;;;;;5.97;2.90;;;15.40;99.90;;;;;;5015892;28;20034;-71
2021/08/03 01:55:01;;;;;;;5.57;2.83;;;15.40;99.90;;;;;;5015975;28;20475;-71
2021/08/03 01:57:28;;;;;;;5.93;2.30;;;15.40;99.90;;;;;;5014564;28;20030;-71
2021/08/03 01:59:55;;;;;;;4.22;2.72;;;15.40;99.90;;;;;;5014667;28;20036;-71
2021/08/03 02:02:21;;;;;;;4.65;2.85;;;15.40;99.90;;;;;;4998578;28;20382;-71
2021/08/03 02:04:48;;;;;;;6.28;2.67;;;15.40;99.90;;;;;;5014614;28;20475;-71
2021/08/03 02:07:18;;;;;;;8.98;3.75;;;15.40;99.90;;;;;;5014552;28;20109;-71
2021/08/03 02:09:45;;;;;;;5.07;3.28;;;15.40;99.90;;;;;;5014468;28;20363;-71
2021/08/03 02:12:14;;;;;;;6.43;2.88;;;15.40;99.90;;;;;;5015643;28;20026;-71
2021/08/03 02:14:46;;;;;;;5.10;3.15;;;15.30;99.90;;;;;;5015331;28;20095;-71
2021/08/03 02:17:20;;;;;;;7.28;3.00;;;15.40;99.90;;;;;;5015616;28;20597;-71
2021/08/03 02:19:47;;;;;;;7.72;2.60;;;15.50;99.90;;;;;;5015664;28;20057;-71
2021/08/03 02:22:14;;;;;;;6.38;2.35;;;15.70;99.90;;;;;;5015684;28;20121;-71
2021/08/03 02:24:41;;;;;;;8.52;2.40;;;15.70;99.90;;;;;;5015416;28;20026;-71
2021/08/03 02:27:07;;;;;;;5.30;2.40;;;15.70;99.90;;;;;;5014581;28;20037;-71
2021/08/03 02:29:35;;;;;;;4.22;2.30;;;15.70;99.90;;;;;;5015307;28;20034;-70
2021/08/03 02:32:20;;;;;;;6.28;2.80;;;15.80;99.90;;;;;;5014399;28;20118;-71
2021/08/03 02:34:58;;;;;;;3.38;2.17;;;15.70;99.90;;;;;;5013942;28;20538;-71
2021/08/03 02:37:32;;;;;;;4.45;2.10;;;15.70;99.90;;;;;;5015582;28;20034;-71
2021/08/03 02:40:02;;;;;;;6.90;2.20;;;15.70;99.90;;;;;;5015304;28;20495;-71
2021/08/03 02:42:29;;;;;;;4.13;2.05;;;15.70;99.90;;;;;;5013915;28;20034;-70
2021/08/03 02:45:03;;;;;;;4.00;2.20;;;15.60;99.90;;;;;;5015153;28;20022;-70
2021/08/03 02:47:50;;;;;;;5.22;2.30;;;15.70;99.90;;;;;;5015203;28;20132;-71
2021/08/03 02:50:17;;;;;;;3.53;2.05;;;15.60;99.90;;;;;;5014413;28;20030;-70
2021/08/03 02:52:46;;;;;;;6.68;2.35;;;15.60;99.90;;;;;;5014849;28;20038;-71
2021/08/03 02:55:53;;;;;;;6.03;2.20;;;15.60;99.90;;;;;;5013860;28;20037;-71
2021/08/03 02:58:28;;;;;;;2.90;1.90;;;15.50;99.90;;;;;;4980951;28;20041;-71
2021/08/03 03:00:57;;;;;;;3.78;2.00;;;15.60;99.90;;;;;;5007611;28;20046;-70
2021/08/03 03:03:25;;;;;;;4.18;2.25;;;15.60;99.90;;;;;;5014774;28;20442;-70
2021/08/03 03:05:59;;;;;;;6.05;2.20;;;15.60;99.90;;;;;;5013563;28;20164;-70
2021/08/03 03:08:27;;;;;;;3.42;1.77;;;15.60;99.90;;;;;;5014577;28;20034;-70
2021/08/03 03:10:56;;;;;;;3.28;1.88;;;15.50;99.90;;;;;;5014873;28;20030;-70
2021/08/03 03:13:37;;;;;;;3.95;2.42;;;15.50;99.90;;;;;;5013273;28;20036;-70
2021/08/03 03:16:05;;;;;;;4.70;1.90;;;15.40;99.90;;;;;;5014556;28;20048;-70
2021/08/03 03:18:33;;;;;;;3.20;1.90;;;15.40;99.90;;;;;;5013139;28;20041;-71
2021/08/03 03:21:01;;;;;;;2.97;1.90;;;15.40;99.90;;;;;;5014470;28;20478;-71
2021/08/03 03:23:32;;;;;;;6.30;1.88;;;15.30;99.90;;;;;;5013151;28;20133;-70
2021/08/03 03:25:59;;;;;;;3.85;2.03;;;15.20;99.90;;;;;;5013274;28;20034;-70
2021/08/03 03:28:30;;;;;;;4.65;2.65;;;15.10;99.90;;;;;;5014237;28;20042;-70
2021/08/03 03:30:57;;;;;;;5.10;2.33;;;15.00;99.90;;;;;;5013222;28;20363;-71
2021/08/03 03:33:24;;;;;;;5.65;2.33;;;15.00;99.90;;;;;;5013289;28;20046;-71
2021/08/03 03:35:55;;;;;;;6.03;2.17;;;14.90;99.90;;;;;;5013029;28;20048;-71
2021/08/03 03:38:28;;;;;;;6.40;2.20;;;15.00;99.90;;;;;;5014248;28;20026;-71
2021/08/03 03:40:55;;;;;;;3.90;2.10;;;15.00;99.90;;;;;;5014093;28;20042;-71
2021/08/03 03:43:22;;;;;;;3.95;2.47;;;15.10;99.90;;;;;;5012897;28;20189;-71
2021/08/03 03:46:12;;;;;;;4.80;2.35;;;15.00;99.90;;;;;;5012383;28;20121;-71
2021/08/03 03:48:53;;;;;;;7.30;2.83;;;14.90;99.90;;;;;;5012671;28;20729;-71
2021/08/03 03:51:29;;;;;;;3.40;2.33;;;14.90;99.90;;;;;;5012835;28;20040;-71
2021/08/03 03:54:01;;;;;;;7.53;2.63;;;14.90;99.90;;;;;;5012134;28;20406;-71
2021/08/03 03:56:34;;;;;;;3.58;2.13;;;15.10;99.90;;;;;;5012583;28;20065;-71
2021/08/03 03:59:04;;;;;;;8.68;1.90;;;15.20;99.90;;;;;;5012956;28;20123;-71
2021/08/03 04:01:31;;;;;;;3.65;2.22;;;15.30;99.90;;;;;;5012672;28;20040;-71
2021/08/03 04:04:05;;;;;;;7.32;2.72;;;15.30;99.90;;;;;;5013779;28;20034;-71
2021/08/03 04:06:33;;;;;;;5.70;2.40;;;15.30;99.90;;;;;;5012259;28;20472;-71
2021/08/03 04:08:59;;;;;;;4.25;2.00;;;15.30;99.90;;;;;;5012397;28;20041;-71
2021/08/03 04:11:25;;;;;;;4.90;2.20;;;15.40;99.90;;;;;;5013175;28;20038;-71
2021/08/03 04:13:52;;;;;;;4.75;2.40;;;15.30;99.90;;;;;;5012087;28;20498;-71
2021/08/03 04:16:18;;;;;;;7.22;2.33;;;15.20;99.90;;;;;;5012004;28;20041;-70
2021/08/03 04:18:45;;;;;;;3.40;2.20;;;15.30;99.90;;;;;;5013441;28;20022;-72
2021/08/03 04:21:10;;;;;;;5.55;2.33;;;15.20;99.90;;;;;;5024824;28;20034;-66
2021/08/03 04:23:36;;;;;;;6.10;2.40;;;15.10;99.90;;;;;;5032793;28;20036;-66
2021/08/03 04:26:02;;;;;;;7.10;2.78;;;15.10;99.90;;;;;;5030399;28;20026;-65
2021/08/03 04:28:28;;;;;;;5.35;2.28;;;15.10;99.90;;;;;;5026922;28;20056;-63
2021/08/03 04:30:54;;;;;;;3.60;2.20;;;15.10;99.90;;;;;;5033003;28;20095;-64
2021/08/03 04:33:20;;;;;;;4.10;2.40;;;15.00;99.90;;;;;;5032836;28;20163;-65
2021/08/03 04:35:46;;;;;;;5.65;2.33;;;15.10;99.90;;;;;;5032604;28;20037;-66
2021/08/03 04:38:12;;;;;;;4.15;1.90;;;15.10;99.90;;;;;;5032968;28;20036;-65
2021/08/03 04:40:37;;;;;;;9.40;2.92;;;15.20;99.90;;;;;;5032714;28;20029;-64
2021/08/03 04:43:03;;;;;;;4.70;2.40;;;15.20;99.90;;;;;;5031471;28;20037;-64
2021/08/03 04:45:29;;;;;;;5.50;2.38;;;15.20;99.90;;;;;;5032656;28;20045;-64
2021/08/03 04:47:55;;;;;;;4.60;2.25;;;15.20;99.90;;;;;;5032763;28;20030;-64
2021/08/03 04:50:23;;;;;;;3.53;1.98;;;15.30;99.90;;;;;;5035349;28;20048;-64
2021/08/03 04:52:49;;;;;;;5.07;2.40;;;15.30;99.90;;;;;;5051239;28;20469;-64
2021/08/03 04:55:15;;;;;;;3.40;1.92;;;15.30;99.90;;;;;;5052426;28;20037;-65
2021/08/03 04:57:42;;;;;;;4.72;2.30;;;15.40;99.90;;;;;;5052572;28;20029;-65
2021/08/03 05:00:12;;;;;;;9.95;2.47;;;15.30;99.90;;;;;;5052376;28;20482;-64
2021/08/03 05:02:38;;;;;;;3.87;2.17;;;15.40;99.90;;;;;;5052528;28;20041;-67
2021/08/03 05:05:06;;;;;;;4.40;1.83;;;15.40;99.90;;;;;;5050957;28;20039;-67
2021/08/03 05:07:32;;;;;;;7.28;2.47;;;15.40;99.90;;;;;;5052535;28;20037;-67
2021/08/03 05:10:10;;;;;;;7.53;2.50;;;15.40;99.90;;;;;;5052394;28;20158;-67
2021/08/03 05:12:37;;;;;;;3.72;2.30;;;15.40;99.90;;;;;;5052130;28;20109;-67
2021/08/03 05:15:05;;;;;;;3.35;1.83;;;15.40;99.90;;;;;;5051205;28;20033;-67
2021/08/03 05:17:33;;;;;;;4.70;2.75;;;15.40;99.90;;;;;;5052065;28;20036;-67
2021/08/03 05:19:59;;;;;;;3.95;2.45;;;15.50;99.90;;;;;;5050584;28;20082;-67
2021/08/03 05:22:25;;;;;;;2.85;1.85;;;15.50;99.90;;;;;;5031820;28;20137;-68
2021/08/03 05:24:52;;;;;;;7.18;2.50;;;15.60;99.90;;;;;;5032226;28;20536;-70
2021/08/03 05:27:18;;;;;;;7.05;2.65;;;15.60;99.90;;;;;;5032474;28;20041;-68
2021/08/03 05:29:44;;;;;;;5.15;2.47;;;15.60;99.90;;;;;;5031512;28;20029;-68
2021/08/03 05:32:10;;;;;;;8.05;2.15;;;15.60;99.90;;;;;;5031134;28;20041;-67
2021/08/03 05:34:36;;;;;;;4.68;2.40;;;15.70;99.90;;;;;;5019310;28;20372;-68
2021/08/03 05:37:06;;;;;;;3.35;2.00;;;15.70;99.90;;;;;;5010529;28;20076;-67
2021/08/03 05:43:22;;;;;;;6.82;2.20;;;15.70;99.90;;;;;;4940078;29;20208;-67
2021/08/03 05:45:48;;;;;;;2.95;2.00;;;15.80;99.90;;;;;;4934854;29;20051;-67
2021/08/03 05:48:14;;;;;;;4.75;2.33;;;15.80;99.90;;;;;;4904452;29;20051;-69
2021/08/03 05:50:40;;;;;;;5.55;2.03;;;15.80;99.90;;;;;;4932111;29;20627;-69
2021/08/03 05:53:06;;;;;;;8.30;2.40;;;15.90;99.90;;;;;;4932441;29;20039;-69
2021/08/03 05:55:32;;;;;;;4.97;2.50;;;15.90;99.90;;;;;;4916436;29;20716;-69
2021/08/03 05:57:57;;;;;;;4.70;2.15;;;15.90;99.90;;;;;;4932306;29;20157;-69
2021/08/03 06:00:23;;;;;;;6.35;2.17;;;15.90;99.90;;;;;;4936654;29;20042;-69
2021/08/03 06:02:49;;;;;;;5.38;2.47;;;15.90;99.90;;;;;;4951421;29;20087;-69
2021/08/03 06:05:15;;;;;;;5.63;2.10;;;15.90;99.90;;;;;;4951377;28;20031;-69
2021/08/03 06:07:44;;;;;;;2.92;2.20;;;16.00;99.90;;;;;;4951302;29;20032;-69
2021/08/03 06:10:15;;;;;;;4.80;2.63;;;16.20;99.90;;;;;;4951523;29;20055;-69
2021/08/03 06:12:53;;;;;;;4.40;2.22;;;16.20;99.90;;;;;;4951223;29;20043;-69
2021/08/03 06:15:19;;;;;;;4.80;2.90;;;16.40;99.90;;;;;;4935758;29;20098;-69
2021/08/03 06:17:51;;;;;;;8.32;2.13;;;16.30;99.90;;;;;;4935309;29;20039;-69
2021/08/03 06:20:17;;;;;;;4.55;2.53;;;16.40;99.90;;;;;;4951402;29;20039;-69
2021/08/03 06:22:43;;;;;;;4.15;2.42;;;16.40;99.90;;;;;;4980149;28;20041;-69
2021/08/03 06:25:14;;;;;;;4.88;2.67;;;16.20;99.90;;;;;;5011862;28;20038;-70
2021/08/03 06:27:42;;;;;;;5.07;2.70;;;16.30;99.90;;;;;;5012061;28;20029;-69
2021/08/03 06:30:09;;;;;;;5.85;2.35;;;16.30;99.90;;;;;;5010877;28;20037;-70
2021/08/03 06:32:35;;;;;;;4.32;2.63;;;16.40;99.90;;;;;;5011734;28;20022;-69
2021/08/03 06:35:01;;;;;;;6.80;3.75;;;16.40;99.90;;;;;;5025211;28;20087;-69
2021/08/03 06:37:27;;;;;;;4.38;3.08;;;16.40;99.90;;;;;;5035354;28;20033;-69
2021/08/03 06:39:52;;;;;;;4.35;2.83;;;16.50;99.90;;;;;;5033792;28;20033;-69
2021/08/03 06:43:13;;;;;;;6.82;3.58;;;16.40;99.90;;;;;;5035259;28;20382;-69
2021/08/03 06:45:40;;;;;;;7.22;3.88;;;16.20;99.90;;;;;;5044399;28;20041;-69
2021/08/03 06:48:32;;;;;;;5.70;4.03;;;16.20;99.90;;;;;;5033704;28;20038;-69
2021/08/03 06:51:11;;;;;;;6.88;3.53;;;16.10;99.90;;;;;;5033592;28;20073;-69
2021/08/03 06:53:40;;;;;;;6.15;3.47;;;16.20;99.90;;;;;;5034068;28;20067;-70
2021/08/03 06:56:07;;;;;;;9.23;3.55;;;16.10;99.90;;;;;;5033457;28;20169;-69
2021/08/03 06:59:10;;;;;;;4.75;3.38;;;16.30;99.90;;;;;;5033952;28;20029;-68
2021/08/03 07:02:07;;;;;;;6.63;3.38;;;16.50;99.90;;;;;;5033975;28;20032;-69
2021/08/03 07:04:57;;;;;;;6.57;3.83;;;16.60;99.90;;;;;;5034733;28;20042;-69
2021/08/03 07:07:25;;;;;;;6.97;4.28;;;16.70;99.90;;;;;;5034548;28;20072;-68
2021/08/03 07:09:52;;;;;;;7.95;4.50;;;16.70;99.90;;;;;;5033550;28;20497;-69
2021/08/03 07:12:18;;;;;;;6.95;4.88;;;16.70;99.90;;;;;;5033653;28;20036;-69
2021/08/03 07:14:46;;;;;;;9.65;4.60;;;16.70;99.90;;;;;;5033173;28;20041;-69
2021/08/03 07:17:14;;;;;;;8.48;5.03;;;16.70;99.90;;;;;;5033520;28;20021;-69
2021/08/03 07:19:40;;;;;;;9.75;5.20;;;16.70;99.90;;;;;;5033518;28;20037;-69
2021/08/03 07:22:16;;;;;;;13.00;5.70;;;16.70;99.90;;;;;;5033162;28;20029;-69
2021/08/03 07:24:49;;;;;;;10.23;4.50;;;16.70;99.90;;;;;;5033424;28;20120;-69
2021/08/03 07:27:15;;;;;;;8.10;4.90;;;16.80;99.90;;;;;;5016887;28;20072;-69
2021/08/03 07:29:41;;;;;;;7.45;3.95;;;16.80;99.90;;;;;;5034146;28;20029;-70
2021/08/03 07:32:08;;;;;;;9.40;4.47;;;16.80;99.90;;;;;;5032878;28;20040;-70
2021/08/03 07:34:38;;;;;;;4.70;2.55;;;16.90;99.90;;;;;;5032956;28;20038;-70
2021/08/03 07:37:06;;;;;;;7.25;3.28;;;16.90;99.90;;;;;;5049158;28;20026;-70
2021/08/03 07:39:33;;;;;;;5.40;3.28;;;17.00;99.90;;;;;;5032943;28;20116;-69
2021/08/03 07:41:58;;;;;;;4.88;2.40;;;17.10;99.90;;;;;;5032619;28;20385;-70
2021/08/03 07:44:24;;;;;;;5.45;2.60;;;16.90;99.90;;;;;;5032574;28;20030;-65
2021/08/03 07:46:51;;;;;;;5.20;2.50;;;17.00;99.90;;;;;;5032054;28;20104;-70
2021/08/03 07:49:18;;;;;;;7.07;2.55;;;16.70;99.90;;;;;;5032912;28;20037;-70
2021/08/03 07:51:47;;;;;;;9.25;2.70;;;16.80;99.90;;;;;;5033842;28;20112;-70
2021/08/03 07:54:13;;;;;;;6.93;2.95;;;16.90;99.90;;;;;;5033732;28;20044;-70
2021/08/03 07:56:39;;;;;;;7.43;2.92;;;16.90;99.90;;;;;;5032447;28;20045;-70
2021/08/03 07:59:05;;;;;;;5.80;2.90;;;16.90;99.90;;;;;;5032472;28;20040;-70
2021/08/03 08:01:30;;;;;;;5.55;2.63;;;16.90;99.90;;;;;;5033945;28;20025;-70
2021/08/03 08:03:56;;;;;;;4.30;2.75;;;16.90;99.90;;;;;;5032284;28;20028;-71
2021/08/03 08:06:22;;;;;;;5.78;2.85;;;16.90;99.90;;;;;;5033701;28;20359;-71
2021/08/03 08:08:47;;;;;;;5.90;3.08;;;16.90;99.90;;;;;;5032401;28;20025;-70
2021/08/03 08:11:13;;;;;;;5.47;2.97;;;16.80;99.90;;;;;;5032216;28;20064;-70
2021/08/03 08:13:39;;;;;;;5.60;3.10;;;16.70;99.90;;;;;;5033642;28;20076;-70
2021/08/03 08:16:05;;;;;;;4.72;3.50;;;16.70;99.90;;;;;;5033298;28;20044;-71
2021/08/03 08:18:31;;;;;;;6.78;3.20;;;16.60;99.90;;;;;;5015653;28;20108;-71
2021/08/03 08:20:57;;;;;;;6.78;3.45;;;16.80;99.90;;;;;;5031831;28;20120;-70
2021/08/03 08:23:23;;;;;;;7.25;2.85;;;16.90;99.90;;;;;;5033117;28;20045;-70
2021/08/03 08:25:49;;;;;;;5.72;3.40;;;17.00;99.90;;;;;;5033243;28;20045;-70
2021/08/03 08:28:15;;;;;;;7.75;3.15;;;16.90;99.90;;;;;;5033155;28;20041;-70
2021/08/03 08:30:41;;;;;;;4.35;2.78;;;17.00;99.90;;;;;;5032938;28;20029;-70
2021/08/03 08:33:10;;;;;;;7.38;3.50;;;17.00;99.90;;;;;;5032943;28;20087;-71
2021/08/03 08:35:37;;;;;;;5.53;3.35;;;17.10;99.90;;;;;;5031762;28;20034;-70
2021/08/03 08:38:04;;;;;;;5.65;3.17;;;17.10;99.90;;;;;;5015266;28;20482;-71
2021/08/03 08:40:30;;;;;;;4.20;2.90;;;17.10;99.90;;;;;;5043733;28;20044;-71
2021/08/03 08:42:56;;;;;;;5.43;2.65;;;17.00;99.90;;;;;;5052704;28;20078;-71
2021/08/03 08:45:21;;;;;;;4.47;2.58;;;17.00;99.90;;;;;;5051364;28;20065;-71
2021/08/03 08:47:49;;;;;;;3.75;2.45;;;17.00;99.90;;;;;;5052800;28;20063;-71
2021/08/03 08:50:20;;;;;;;7.50;2.50;;;16.80;99.90;;;;;;5051407;28;20042;-71
2021/08/03 08:52:50;;;;;;;5.00;2.53;;;16.70;99.90;;;;;;5052564;28;20025;-71
2021/08/03 08:55:16;;;;;;;5.97;2.30;;;16.70;99.90;;;;;;5051215;28;20075;-72
2021/08/03 08:57:42;;;;;;;5.32;3.10;;;16.70;99.90;;;;;;5050709;28;20040;-72
2021/08/03 09:00:10;;;;;;;5.63;2.30;;;16.60;99.90;;;;;;5051179;28;20112;-73
2021/08/03 09:02:52;;;;;;;4.65;2.33;;;16.50;99.90;;;;;;5052522;28;20162;-73
2021/08/03 09:05:27;;;;;;;2.50;1.42;;;16.50;99.90;;;;;;5050998;28;20021;-73
2021/08/03 09:07:56;;;;;;;4.20;2.10;;;16.50;99.90;;;;;;5052144;28;20045;-74
2021/08/03 09:10:49;;;;;;;2.67;1.30;;;16.50;99.90;;;;;;5034724;28;20521;-73
2021/08/03 09:13:20;;;;;;;3.30;1.10;;;16.30;99.90;;;;;;5050815;28;20033;-72
2021/08/03 09:16:00;;;;;;;2.25;1.23;;;16.20;99.90;;;;;;5051078;28;20490;-73
2021/08/03 09:18:34;;;;;;;4.05;1.60;;;16.00;99.90;;;;;;5034797;28;20106;-72
2021/08/03 09:21:00;;;;;;;4.13;1.45;;;15.90;99.90;;;;;;5052084;28;20478;-72
2021/08/03 09:23:50;;;;;;;2.10;1.50;;;15.90;99.90;;;;;;5050963;28;20052;-72
2021/08/03 09:26:16;;;;;;;2.58;1.20;;;15.90;99.90;;;;;;5051913;28;20032;-72
2021/08/03 09:29:07;;;;;;;1.98;1.30;;;15.90;99.90;;;;;;5034117;28;20439;-72
2021/08/03 09:31:36;;;;;;;4.35;1.48;;;16.00;99.90;;;;;;5052175;28;20458;-73
2021/08/03 09:34:16;;;;;;;3.13;1.58;;;16.00;99.90;;;;;;5050566;28;20398;-73
2021/08/03 09:36:47;;;;;;;3.55;1.50;;;16.10;99.90;;;;;;5050594;28;20036;-73
2021/08/03 09:39:45;;;;;;;4.10;1.98;;;16.00;99.90;;;;;;5051950;28;20037;-73
2021/08/03 09:42:24;;;;;;;2.22;1.38;;;16.10;99.90;;;;;;5051755;28;20451;-73
2021/08/03 09:44:56;;;;;;;3.65;1.77;;;15.90;99.90;;;;;;5051003;28;20036;-72
2021/08/03 09:47:24;;;;;;;3.95;1.70;;;16.10;99.90;;;;;;5051634;28;20057;-77
2021/08/03 09:49:54;;;;;;;4.07;2.00;;;16.20;99.90;;;;;;5050855;28;20116;-74
2021/08/03 09:52:30;;;;;;;8.57;2.63;;;16.20;99.90;;;;;;5051037;28;20489;-74
2021/08/03 09:55:12;;;;;;;3.90;2.25;;;16.10;99.90;;;;;;5050682;28;20636;-73
2021/08/03 09:57:40;;;;;;;3.65;2.45;;;16.20;99.90;;;;;;5051745;28;20441;-69
2021/08/03 10:00:26;;;;;;;4.50;2.72;;;16.20;99.90;;;;;;5050440;28;20025;-70
2021/08/03 10:02:53;;;;;;;3.78;2.00;;;16.20;99.90;;;;;;5050517;28;20033;-70
2021/08/03 10:05:20;;;;;;;3.88;2.35;;;16.20;99.90;;;;;;5050212;28;20043;-70
2021/08/03 10:07:46;;;;;;;3.22;2.05;;;16.30;99.90;;;;;;5051710;28;20060;-70
2021/08/03 10:10:13;;;;;;;5.05;2.10;;;16.30;99.90;;;;;;5055411;28;20056;-70
2021/08/03 10:12:40;;;;;;;4.13;1.73;;;16.30;99.90;;;;;;5055373;28;20052;-70
2021/08/03 10:15:10;;;;;;;3.63;1.75;;;16.40;99.90;;;;;;5055505;28;20032;-69
2021/08/03 10:17:37;;;;;;;3.60;1.80;;;16.50;99.90;;;;;;5053942;28;20033;-70
2021/08/03 10:20:05;;;;;;;8.07;2.00;;;16.60;99.90;;;;;;5055461;28;20029;-70
2021/08/03 10:22:37;;;;;;;2.50;1.42;;;16.50;99.90;;;;;;5053984;28;20059;-69
2021/08/03 10:25:10;;;;;;;3.40;1.80;;;16.60;99.90;;;;;;5054026;28;20084;-70
2021/08/03 10:27:49;;;;;;;4.45;1.80;;;16.80;99.90;;;;;;5054165;28;20033;-70
2021/08/03 10:30:44;;;;;;;7.43;1.88;;;16.80;99.90;;;;;;5055448;28;20033;-70
2021/08/03 10:33:46;;;;;;;5.13;2.50;;;17.10;99.90;;;;;;5050232;28;20041;-70
2021/08/03 10:36:38;;;;;;;7.32;2.50;;;17.20;99.90;;;;;;5053548;28;20619;-69
2021/08/03 10:39:12;;;;;;;;;;;17.00;99.90;;;;;;5055286;28;20029;-69
2021/08/03 10:42:00;;;;;;;2.38;1.40;;;16.80;99.90;;;;;;5054926;28;19948;-69
2021/08/03 10:45:02;;;;;;;5.05;1.42;;;17.00;99.90;;;;;;5055139;28;20033;-68
2021/08/03 10:47:33;;;;;;;3.45;1.63;;;17.00;99.90;;;;;;5053767;28;20044;-69
2021/08/03 10:50:09;;;;;;;3.10;1.63;;;17.30;99.90;;;;;;5054715;28;20037;-69
2021/08/03 10:52:53;;;;;;;4.47;1.55;;;17.40;99.90;;;;;;5054747;28;20064;-69
2021/08/03 10:55:42;;;;;;;4.28;1.75;;;17.50;99.90;;;;;;5054613;28;20052;-68
2021/08/03 10:58:16;;;;;;;3.47;1.60;;;17.40;99.90;;;;;;5053319;28;20025;-69
2021/08/03 11:00:54;;;;;;;2.13;1.27;;;17.40;99.90;;;;;;5054764;28;20033;-69
2021/08/03 11:03:34;;;;;;;2.97;1.10;;;17.50;99.90;;;;;;5054317;28;20032;-69
2021/08/03 11:06:06;;;;;;;2.38;1.13;;;17.50;99.90;;;;;;5053183;28;20166;-68
2021/08/03 11:08:43;;;;;;;6.65;1.27;;;17.70;99.90;;;;;;5054631;28;20049;-68
2021/08/03 11:11:25;;;;;;;3.20;1.63;;;17.90;99.90;;;;;;5053198;28;20033;-68
2021/08/03 11:14:06;;;;;;;2.80;1.40;;;18.10;99.90;;;;;;5054385;28;20033;-68
2021/08/03 11:16:31;;;;;;;2.00;1.20;;;18.30;99.90;;;;;;5053148;28;20120;-68
2021/08/03 11:19:03;;;;;;;2.50;1.35;;;18.60;99.90;;;;;;5054587;28;20040;-68
2021/08/03 11:21:50;;;;;;;1.50;0.93;;;19.00;99.90;;;;;;5052273;28;20112;-68
2021/08/03 11:24:35;;;;;;;3.15;1.20;;;19.20;99.90;;;;;;5053696;28;20033;-68
2021/08/03 11:27:01;;;;;;;1.98;1.13;;;19.00;99.90;;;;;;5052950;28;20102;-68
2021/08/03 11:29:36;;;;;;;2.10;1.30;;;18.80;99.90;;;;;;5052828;28;20064;-68
2021/08/03 11:32:18;;;;;;;3.30;1.40;;;18.80;99.90;;;;;;5054355;28;20115;-67
2021/08/03 11:34:46;;;;;;;2.53;1.35;;;19.00;99.90;;;;;;5053048;28;20029;-66
2021/08/03 11:37:23;;;;;;;1.90;1.13;;;19.10;99.90;;;;;;5053868;28;20033;-68
2021/08/03 11:39:58;;;;;;;2.50;1.02;;;19.30;99.90;;;;;;5036130;28;20025;-68
2021/08/03 11:42:42;;;;;;;1.92;1.20;;;19.40;99.90;;;;;;5054134;28;20068;-67
2021/08/03 11:45:28;;;;;;;2.20;1.30;;;19.10;99.90;;;;;;5053660;28;20044;-68
2021/08/03 11:47:56;;;;;;;3.28;1.55;;;19.60;99.90;;;;;;5052892;28;20067;-68
2021/08/03 11:50:39;;;;;;;2.65;1.20;;;19.50;99.90;;;;;;5053743;28;20036;-68
2021/08/03 11:53:14;;;;;;;2.95;1.60;;;19.70;99.90;;;;;;5053547;28;20370;-69
2021/08/03 11:55:44;;;;;;;1.90;1.17;;;20.10;99.90;;;;;;5052369;28;20029;-69
2021/08/03 11:58:12;;;;;;;2.35;1.20;;;20.20;99.90;;;;;;5053850;28;20025;-69
2021/08/03 12:00:38;;;;;;;2.60;1.30;;;20.10;99.90;;;;;;5052454;28;20033;-69
2021/08/03 12:03:05;;;;;;;2.08;1.10;;;20.10;99.90;;;;;;5053462;28;20064;-69
2021/08/03 12:05:33;;;;;;;2.00;1.23;;;20.10;99.90;;;;;;5048305;28;20039;-69
2021/08/03 12:08:03;;;;;;;1.80;1.10;;;20.30;99.90;;;;;;5013571;28;20113;-69
2021/08/03 12:10:46;;;;;;;4.43;1.05;;;20.40;99.90;;;;;;5012401;28;20037;-69
2021/08/03 12:13:30;;;;;;;3.05;1.40;;;20.50;99.90;;;;;;5013466;28;20459;-69
2021/08/03 12:15:58;;;;;;;2.95;1.30;;;20.40;99.90;;;;;;5012312;28;20394;-69
2021/08/03 12:18:46;;;;;;;3.85;1.23;;;20.00;99.90;;;;;;5012385;28;20026;-69
2021/08/03 12:21:12;;;;;;;3.47;1.50;;;19.90;99.90;;;;;;5013274;28;20026;-69
2021/08/03 12:23:40;;;;;;;2.25;1.42;;;19.90;99.90;;;;;;5013416;28;20041;-69
2021/08/03 12:26:15;;;;;;;2.80;1.15;;;20.10;99.90;;;;;;5011871;28;20073;-69
2021/08/03 12:28:49;;;;;;;2.05;1.00;;;20.30;99.90;;;;;;5013617;28;20471;-70
2021/08/03 12:31:24;;;;;;;3.47;1.00;;;20.60;99.90;;;;;;5012898;28;20479;-69
2021/08/03 12:33:51;;;;;;;2.28;1.15;;;20.60;99.90;;;;;;5028569;28;20120;-69
2021/08/03 12:36:20;;;;;;;1.85;1.20;;;20.60;99.90;;;;;;5013187;28;20030;-69
2021/08/03 12:39:08;;;;;;;3.40;1.30;;;20.60;99.90;;;;;;5011969;28;20030;-69
2021/08/03 12:41:35;;;;;;;2.60;1.10;;;20.70;99.90;;;;;;5013198;28;20033;-69
2021/08/03 12:44:02;;;;;;;2.60;1.20;;;20.80;99.90;;;;;;5044917;28;20112;-68
2021/08/03 12:46:38;;;;;;;2.60;1.10;;;21.10;99.90;;;;;;5051165;28;20047;-68
2021/08/03 12:49:07;;;;;;;2.80;1.65;;;21.20;99.90;;;;;;5035088;28;20037;-68
2021/08/03 12:51:34;;;;;;;3.45;1.55;;;21.30;99.90;;;;;;5052391;28;20432;-68
2021/08/03 12:54:15;;;;;;;2.00;0.90;;;21.80;99.90;;;;;;5052609;28;20123;-68
2021/08/03 12:56:59;;;;;;;2.17;1.33;;;21.60;99.90;;;;;;5051552;28;20063;-68
2021/08/03 12:59:41;;;;;;;2.40;0.82;;;22.00;99.90;;;;;;5052157;28;20033;-68
2021/08/03 13:02:13;;;;;;;2.15;1.10;;;21.90;99.90;;;;;;5051002;28;20370;-68
2021/08/03 13:04:40;;;;;;;1.75;0.93;;;21.60;99.90;;;;;;5051245;28;20548;-69
2021/08/03 13:07:07;;;;;;;3.60;1.00;;;21.70;99.90;;;;;;5052294;28;20029;-68
2021/08/03 13:09:35;;;;;;;1.90;1.00;;;21.80;99.90;;;;;;5051105;28;20478;-68
2021/08/03 13:12:03;;;;;;;2.08;0.95;;;21.60;99.90;;;;;;5052367;28;20029;-68
2021/08/03 13:14:29;;;;;;;2.15;1.00;;;21.50;99.90;;;;;;5051916;28;20605;-68
2021/08/03 13:16:58;;;;;;;2.03;1.02;;;21.70;99.90;;;;;;5052217;28;20124;-67